Terminal Aerodrome Forecast
Issued by NWS Wakefield, VA

Home | Current Version | Previous Version | Text Only | Print | Product List | Glossary On
Versions: 1 2 3 4 5 6 7 8 9 10 11 12 13 14 15 16 17 18 19 20 21 22 23 24 25 26
000
FTUS41 KAKQ 042100 AAB
TAFRIC
TAF AMD
KRIC 042136Z 0422/0518 02007KT P6SM OVC035
     FM042200 03005KT P6SM OVC030
      TEMPO 0423/0424 OVC020
     FM050000 02010KT P6SM OVC015
     FM050200 02012KT 3SM -RA BR OVC007
     FM051200 02015KT 1SM -RASN BR OVC007=

USA.gov is the U.S. government's official web portal to all federal, state and local government web resources and services.